Glinton, United Kingdom
Current Conditions -  °F | °C
As of 11:50 AM on Thursday 30 Oct 2014 (Local Time) from EGXT Reporting Station
Haze Haze  
Wind Chill: 63°   Ceiling: 1100
Heat Index: 63°   Visibility: 4mi
Dew Point: 59°   Wind: 10mph
Humidity: 88%   Direction: 200°SSW
Pressure: 30.03"   Gusts: NA
Location:  52.64°N, 0.3°W
Report Text: EGXT 301150Z 20009KT 7000 HZ BKN011 BKN036 17/15 Q1017 GRN
Loading
Personal Weather Stations






























Interactive Weather Map New forecast layout! Learn more

10-Day Weather Forecast

Advertisements
Track Severe Weather on mobile